Orondo, Washington
Current Conditions -  °F | °C
As of 3:55 PM on Wednesday 26 Nov 2014 (Local Time) from KEAT Reporting Station
Overcast Overcast  
Wind Chill: 40°   Ceiling: 800
Heat Index: 40°   Visibility: NA
Dew Point: 35°   Wind: 0mph
Humidity: 83%   Direction: NA
Pressure: 30.09"   Gusts: NA
Location:  47.63°N, 120.22°W
Report Text: KEAT 262355Z AUTO 00000KT OVC008 04/02 A3009 RMK AO2 SLP198 T00440017 10050 20033 55014 $
Loading
Personal Weather Stations






























Interactive Weather Map New forecast layout! Learn more

10-Day Weather Forecast

Advertisements
Track Severe Weather on mobile